sensor_id;sensor_type;location;lat;lon;timestamp;P1;durP1;ratioP1;P2;durP2;ratioP2
36009;SDS011;22076;52.182;5.404;2023-06-05T00:00:47;8.90;;;3.83;;
36009;SDS011;22076;52.182;5.404;2023-06-05T00:03:13;6.25;;;3.60;;
36009;SDS011;22076;52.182;5.404;2023-06-05T00:05:43;7.78;;;3.85;;
36009;SDS011;22076;52.182;5.404;2023-06-05T00:08:09;6.50;;;4.30;;
36009;SDS011;22076;52.182;5.404;2023-06-05T00:10:35;7.60;;;3.53;;
36009;SDS011;22076;52.182;5.404;2023-06-05T00:13:02;8.38;;;5.05;;
36009;SDS011;22076;52.182;5.404;2023-06-05T00:15:30;5.55;;;3.65;;
36009;SDS011;22076;52.182;5.404;2023-06-05T00:18:00;6.00;;;3.80;;
36009;SDS011;22076;52.182;5.404;2023-06-05T00:20:27;6.80;;;3.97;;
36009;SDS011;22076;52.182;5.404;2023-06-05T00:22:54;6.78;;;4.28;;
36009;SDS011;22076;52.182;5.404;2023-06-05T00:25:20;6.95;;;3.85;;
36009;SDS011;22076;52.182;5.404;2023-06-05T00:27:47;6.28;;;3.85;;
36009;SDS011;22076;52.182;5.404;2023-06-05T00:30:14;7.03;;;4.05;;
36009;SDS011;22076;52.182;5.404;2023-06-05T00:32:42;10.95;;;4.80;;
36009;SDS011;22076;52.182;5.404;2023-06-05T00:35:08;9.18;;;3.85;;
36009;SDS011;22076;52.182;5.404;2023-06-05T00:37:35;6.47;;;3.53;;
36009;SDS011;22076;52.182;5.404;2023-06-05T00:40:02;5.82;;;3.78;;
36009;SDS011;22076;52.182;5.404;2023-06-05T00:42:29;4.60;;;3.17;;
36009;SDS011;22076;52.182;5.404;2023-06-05T00:44:56;7.10;;;4.18;;
36009;SDS011;22076;52.182;5.404;2023-06-05T00:47:22;6.28;;;4.25;;
36009;SDS011;22076;52.182;5.404;2023-06-05T00:49:50;8.73;;;4.60;;
36009;SDS011;22076;52.182;5.404;2023-06-05T00:52:17;6.72;;;3.95;;
36009;SDS011;22076;52.182;5.404;2023-06-05T00:54:43;8.30;;;4.28;;
36009;SDS011;22076;52.182;5.404;2023-06-05T00:57:10;6.82;;;3.90;;
36009;SDS011;22076;52.182;5.404;2023-06-05T00:59:37;7.18;;;4.38;;
36009;SDS011;22076;52.182;5.404;2023-06-05T01:02:05;7.88;;;5.38;;
36009;SDS011;22076;52.182;5.404;2023-06-05T01:04:32;8.90;;;5.30;;
36009;SDS011;22076;52.182;5.404;2023-06-05T01:07:00;8.90;;;4.55;;
36009;SDS011;22076;52.182;5.404;2023-06-05T01:09:27;10.10;;;5.10;;
36009;SDS011;22076;52.182;5.404;2023-06-05T01:11:55;6.30;;;4.68;;
36009;SDS011;22076;52.182;5.404;2023-06-05T01:14:26;8.82;;;4.60;;
36009;SDS011;22076;52.182;5.404;2023-06-05T01:16:56;8.10;;;4.38;;
36009;SDS011;22076;52.182;5.404;2023-06-05T01:19:25;6.80;;;4.30;;
36009;SDS011;22076;52.182;5.404;2023-06-05T01:21:56;6.03;;;3.97;;
36009;SDS011;22076;52.182;5.404;2023-06-05T01:24:24;7.28;;;4.82;;
36009;SDS011;22076;52.182;5.404;2023-06-05T01:26:53;6.45;;;4.00;;
36009;SDS011;22076;52.182;5.404;2023-06-05T01:29:28;9.82;;;4.47;;
36009;SDS011;22076;52.182;5.404;2023-06-05T01:31:59;6.82;;;4.13;;
36009;SDS011;22076;52.182;5.404;2023-06-05T01:34:31;5.82;;;3.63;;
36009;SDS011;22076;52.182;5.404;2023-06-05T01:36:59;6.60;;;4.80;;
36009;SDS011;22076;52.182;5.404;2023-06-05T01:39:27;9.43;;;4.45;;
36009;SDS011;22076;52.182;5.404;2023-06-05T01:41:55;10.00;;;5.68;;
36009;SDS011;22076;52.182;5.404;2023-06-05T01:44:21;8.40;;;5.25;;
36009;SDS011;22076;52.182;5.404;2023-06-05T01:46:48;8.30;;;4.10;;
36009;SDS011;22076;52.182;5.404;2023-06-05T01:49:15;7.72;;;5.05;;
36009;SDS011;22076;52.182;5.404;2023-06-05T01:51:42;7.20;;;4.13;;
36009;SDS011;22076;52.182;5.404;2023-06-05T01:54:08;8.18;;;5.60;;
36009;SDS011;22076;52.182;5.404;2023-06-05T01:56:36;13.20;;;4.55;;
36009;SDS011;22076;52.182;5.404;2023-06-05T01:59:03;5.78;;;4.13;;
36009;SDS011;22076;52.182;5.404;2023-06-05T02:01:32;9.07;;;5.20;;
36009;SDS011;22076;52.182;5.404;2023-06-05T02:03:59;7.20;;;4.97;;
36009;SDS011;22076;52.182;5.404;2023-06-05T02:06:31;8.18;;;5.45;;
36009;SDS011;22076;52.182;5.404;2023-06-05T02:09:00;8.32;;;5.50;;
36009;SDS011;22076;52.182;5.404;2023-06-05T02:11:27;6.28;;;4.22;;
36009;SDS011;22076;52.182;5.404;2023-06-05T02:13:55;10.60;;;5.47;;
36009;SDS011;22076;52.182;5.404;2023-06-05T02:16:22;9.20;;;5.43;;
36009;SDS011;22076;52.182;5.404;2023-06-05T02:18:50;11.73;;;5.45;;
36009;SDS011;22076;52.182;5.404;2023-06-05T02:21:17;7.57;;;4.97;;
36009;SDS011;22076;52.182;5.404;2023-06-05T02:23:44;8.95;;;5.07;;
36009;SDS011;22076;52.182;5.404;2023-06-05T02:26:10;7.30;;;4.18;;
36009;SDS011;22076;52.182;5.404;2023-06-05T02:28:37;7.60;;;4.65;;
36009;SDS011;22076;52.182;5.404;2023-06-05T02:31:04;7.95;;;3.92;;
36009;SDS011;22076;52.182;5.404;2023-06-05T02:33:31;8.63;;;5.32;;
36009;SDS011;22076;52.182;5.404;2023-06-05T02:35:58;9.77;;;5.05;;
36009;SDS011;22076;52.182;5.404;2023-06-05T02:38:24;7.65;;;4.28;;
36009;SDS011;22076;52.182;5.404;2023-06-05T02:40:52;13.57;;;5.38;;
36009;SDS011;22076;52.182;5.404;2023-06-05T02:43:18;7.32;;;4.63;;
36009;SDS011;22076;52.182;5.404;2023-06-05T02:45:46;10.48;;;6.75;;
36009;SDS011;22076;52.182;5.404;2023-06-05T02:48:14;8.73;;;4.40;;
36009;SDS011;22076;52.182;5.404;2023-06-05T02:50:41;9.90;;;6.25;;
36009;SDS011;22076;52.182;5.404;2023-06-05T02:53:07;7.75;;;4.50;;
36009;SDS011;22076;52.182;5.404;2023-06-05T02:55:34;9.70;;;5.22;;
36009;SDS011;22076;52.182;5.404;2023-06-05T02:58:00;9.30;;;5.18;;
36009;SDS011;22076;52.182;5.404;2023-06-05T03:00:27;11.95;;;5.45;;
36009;SDS011;22076;52.182;5.404;2023-06-05T03:02:53;6.85;;;4.57;;
36009;SDS011;22076;52.182;5.404;2023-06-05T03:05:21;10.32;;;6.07;;
36009;SDS011;22076;52.182;5.404;2023-06-05T03:07:49;8.25;;;5.18;;
36009;SDS011;22076;52.182;5.404;2023-06-05T03:10:18;12.18;;;7.13;;
36009;SDS011;22076;52.182;5.404;2023-06-05T03:12:44;10.07;;;6.07;;
36009;SDS011;22076;52.182;5.404;2023-06-05T03:15:11;10.35;;;6.00;;
36009;SDS011;22076;52.182;5.404;2023-06-05T03:17:38;7.55;;;5.22;;
36009;SDS011;22076;52.182;5.404;2023-06-05T03:20:05;11.50;;;6.35;;
36009;SDS011;22076;52.182;5.404;2023-06-05T03:22:35;12.95;;;6.47;;
36009;SDS011;22076;52.182;5.404;2023-06-05T03:25:02;9.40;;;5.05;;
36009;SDS011;22076;52.182;5.404;2023-06-05T03:27:29;9.00;;;4.95;;
36009;SDS011;22076;52.182;5.404;2023-06-05T03:29:56;12.82;;;6.70;;
36009;SDS011;22076;52.182;5.404;2023-06-05T03:32:23;10.02;;;6.10;;
36009;SDS011;22076;52.182;5.404;2023-06-05T03:34:50;12.00;;;5.97;;
36009;SDS011;22076;52.182;5.404;2023-06-05T03:37:16;14.95;;;7.40;;
36009;SDS011;22076;52.182;5.404;2023-06-05T03:39:44;13.20;;;7.20;;
36009;SDS011;22076;52.182;5.404;2023-06-05T03:42:10;11.35;;;6.25;;
36009;SDS011;22076;52.182;5.404;2023-06-05T03:44:37;9.00;;;5.50;;
36009;SDS011;22076;52.182;5.404;2023-06-05T03:47:03;13.32;;;7.15;;
36009;SDS011;22076;52.182;5.404;2023-06-05T03:49:31;9.60;;;6.38;;
36009;SDS011;22076;52.182;5.404;2023-06-05T03:51:57;13.63;;;6.47;;
36009;SDS011;22076;52.182;5.404;2023-06-05T03:54:26;9.02;;;5.85;;
36009;SDS011;22076;52.182;5.404;2023-06-05T03:56:54;16.23;;;7.30;;
36009;SDS011;22076;52.182;5.404;2023-06-05T03:59:20;10.13;;;6.28;;
36009;SDS011;22076;52.182;5.404;2023-06-05T04:01:48;11.63;;;7.07;;
36009;SDS011;22076;52.182;5.404;2023-06-05T04:04:14;7.57;;;4.88;;
36009;SDS011;22076;52.182;5.404;2023-06-05T04:06:41;9.73;;;5.68;;
36009;SDS011;22076;52.182;5.404;2023-06-05T04:09:08;13.25;;;6.20;;
36009;SDS011;22076;52.182;5.404;2023-06-05T04:11:37;14.40;;;6.82;;
36009;SDS011;22076;52.182;5.404;2023-06-05T04:14:06;10.82;;;6.85;;
36009;SDS011;22076;52.182;5.404;2023-06-05T04:16:34;14.27;;;6.47;;
36009;SDS011;22076;52.182;5.404;2023-06-05T04:19:03;10.52;;;6.15;;
36009;SDS011;22076;52.182;5.404;2023-06-05T04:21:31;13.57;;;5.20;;
36009;SDS011;22076;52.182;5.404;2023-06-05T04:23:58;12.95;;;5.65;;
36009;SDS011;22076;52.182;5.404;2023-06-05T04:26:25;11.38;;;6.22;;
36009;SDS011;22076;52.182;5.404;2023-06-05T04:28:51;12.25;;;6.95;;
36009;SDS011;22076;52.182;5.404;2023-06-05T04:31:22;10.85;;;5.88;;
36009;SDS011;22076;52.182;5.404;2023-06-05T04:33:50;11.73;;;6.43;;
36009;SDS011;22076;52.182;5.404;2023-06-05T04:36:16;12.15;;;6.60;;
36009;SDS011;22076;52.182;5.404;2023-06-05T04:38:43;11.35;;;6.75;;
36009;SDS011;22076;52.182;5.404;2023-06-05T04:41:10;11.55;;;7.05;;
36009;SDS011;22076;52.182;5.404;2023-06-05T04:43:37;8.32;;;5.57;;
36009;SDS011;22076;52.182;5.404;2023-06-05T04:46:03;11.82;;;6.47;;
36009;SDS011;22076;52.182;5.404;2023-06-05T04:48:31;11.95;;;7.47;;
36009;SDS011;22076;52.182;5.404;2023-06-05T04:50:59;7.13;;;5.18;;
36009;SDS011;22076;52.182;5.404;2023-06-05T04:53:26;14.65;;;6.95;;
36009;SDS011;22076;52.182;5.404;2023-06-05T04:55:53;11.25;;;6.60;;
36009;SDS011;22076;52.182;5.404;2023-06-05T04:58:20;11.68;;;6.07;;
36009;SDS011;22076;52.182;5.404;2023-06-05T05:00:47;11.35;;;6.72;;
36009;SDS011;22076;52.182;5.404;2023-06-05T05:03:14;12.82;;;6.22;;
36009;SDS011;22076;52.182;5.404;2023-06-05T05:05:44;13.02;;;8.25;;
36009;SDS011;22076;52.182;5.404;2023-06-05T05:08:10;12.75;;;7.53;;
36009;SDS011;22076;52.182;5.404;2023-06-05T05:10:37;12.68;;;7.50;;
36009;SDS011;22076;52.182;5.404;2023-06-05T05:13:03;13.63;;;8.20;;
36009;SDS011;22076;52.182;5.404;2023-06-05T05:15:30;12.40;;;6.55;;
36009;SDS011;22076;52.182;5.404;2023-06-05T05:17:56;12.25;;;7.00;;
36009;SDS011;22076;52.182;5.404;2023-06-05T05:20:23;13.52;;;8.68;;
36009;SDS011;22076;52.182;5.404;2023-06-05T05:22:51;12.95;;;7.57;;
36009;SDS011;22076;52.182;5.404;2023-06-05T05:25:17;12.25;;;7.65;;
36009;SDS011;22076;52.182;5.404;2023-06-05T05:27:44;10.27;;;6.35;;
36009;SDS011;22076;52.182;5.404;2023-06-05T05:30:11;14.38;;;7.50;;
36009;SDS011;22076;52.182;5.404;2023-06-05T05:32:38;12.00;;;7.40;;
36009;SDS011;22076;52.182;5.404;2023-06-05T05:35:05;17.00;;;7.95;;
36009;SDS011;22076;52.182;5.404;2023-06-05T05:37:32;13.40;;;8.43;;
36009;SDS011;22076;52.182;5.404;2023-06-05T05:40:00;11.68;;;7.40;;
36009;SDS011;22076;52.182;5.404;2023-06-05T05:42:28;15.82;;;8.23;;
36009;SDS011;22076;52.182;5.404;2023-06-05T05:44:55;12.45;;;9.00;;
36009;SDS011;22076;52.182;5.404;2023-06-05T05:47:21;14.95;;;8.15;;
36009;SDS011;22076;52.182;5.404;2023-06-05T05:49:48;17.98;;;8.30;;
36009;SDS011;22076;52.182;5.404;2023-06-05T05:52:15;14.82;;;9.02;;
36009;SDS011;22076;52.182;5.404;2023-06-05T05:54:45;14.75;;;8.77;;
36009;SDS011;22076;52.182;5.404;2023-06-05T05:57:13;12.73;;;7.60;;
36009;SDS011;22076;52.182;5.404;2023-06-05T05:59:39;16.23;;;9.10;;
36009;SDS011;22076;52.182;5.404;2023-06-05T06:02:07;9.95;;;5.80;;
36009;SDS011;22076;52.182;5.404;2023-06-05T06:04:40;14.95;;;8.85;;
36009;SDS011;22076;52.182;5.404;2023-06-05T06:07:09;15.48;;;7.50;;
36009;SDS011;22076;52.182;5.404;2023-06-05T06:09:35;14.98;;;10.40;;
36009;SDS011;22076;52.182;5.404;2023-06-05T06:12:02;13.18;;;9.30;;
36009;SDS011;22076;52.182;5.404;2023-06-05T06:14:32;14.60;;;8.02;;
36009;SDS011;22076;52.182;5.404;2023-06-05T06:16:59;23.08;;;9.15;;
36009;SDS011;22076;52.182;5.404;2023-06-05T06:19:26;23.63;;;9.52;;
36009;SDS011;22076;52.182;5.404;2023-06-05T06:21:53;15.73;;;8.38;;
36009;SDS011;22076;52.182;5.404;2023-06-05T06:24:20;16.50;;;9.25;;
36009;SDS011;22076;52.182;5.404;2023-06-05T06:26:47;13.63;;;8.48;;
36009;SDS011;22076;52.182;5.404;2023-06-05T06:29:14;11.10;;;7.47;;
36009;SDS011;22076;52.182;5.404;2023-06-05T06:31:42;14.02;;;8.95;;
36009;SDS011;22076;52.182;5.404;2023-06-05T06:34:09;10.80;;;6.90;;
36009;SDS011;22076;52.182;5.404;2023-06-05T06:39:08;18.88;;;9.55;;
36009;SDS011;22076;52.182;5.404;2023-06-05T06:41:36;15.05;;;7.32;;
36009;SDS011;22076;52.182;5.404;2023-06-05T06:44:03;15.75;;;7.95;;
36009;SDS011;22076;52.182;5.404;2023-06-05T06:46:30;14.45;;;8.93;;
36009;SDS011;22076;52.182;5.404;2023-06-05T06:48:58;21.55;;;9.98;;
36009;SDS011;22076;52.182;5.404;2023-06-05T06:51:25;13.63;;;8.00;;
36009;SDS011;22076;52.182;5.404;2023-06-05T06:53:51;9.77;;;6.90;;
36009;SDS011;22076;52.182;5.404;2023-06-05T06:56:18;14.68;;;9.05;;
36009;SDS011;22076;52.182;5.404;2023-06-05T06:58:44;14.88;;;7.70;;
36009;SDS011;22076;52.182;5.404;2023-06-05T07:01:11;16.65;;;8.50;;
36009;SDS011;22076;52.182;5.404;2023-06-05T07:03:38;15.35;;;9.48;;
36009;SDS011;22076;52.182;5.404;2023-06-05T07:06:08;12.30;;;7.95;;
36009;SDS011;22076;52.182;5.404;2023-06-05T07:08:36;10.75;;;7.80;;
36009;SDS011;22076;52.182;5.404;2023-06-05T07:11:02;10.95;;;6.95;;
36009;SDS011;22076;52.182;5.404;2023-06-05T07:13:29;18.13;;;9.57;;
36009;SDS011;22076;52.182;5.404;2023-06-05T07:15:56;15.88;;;9.07;;
36009;SDS011;22076;52.182;5.404;2023-06-05T07:18:22;11.07;;;6.90;;
36009;SDS011;22076;52.182;5.404;2023-06-05T07:20:49;11.50;;;7.65;;
36009;SDS011;22076;52.182;5.404;2023-06-05T07:23:16;14.68;;;8.77;;
36009;SDS011;22076;52.182;5.404;2023-06-05T07:25:43;10.50;;;6.68;;
36009;SDS011;22076;52.182;5.404;2023-06-05T07:28:10;12.32;;;6.78;;
36009;SDS011;22076;52.182;5.404;2023-06-05T07:30:38;8.73;;;5.40;;
36009;SDS011;22076;52.182;5.404;2023-06-05T07:33:08;16.20;;;9.75;;
36009;SDS011;22076;52.182;5.404;2023-06-05T07:35:35;11.02;;;7.35;;
36009;SDS011;22076;52.182;5.404;2023-06-05T07:38:02;9.15;;;6.50;;
36009;SDS011;22076;52.182;5.404;2023-06-05T07:40:30;11.45;;;7.18;;
36009;SDS011;22076;52.182;5.404;2023-06-05T07:42:56;14.05;;;9.10;;
36009;SDS011;22076;52.182;5.404;2023-06-05T07:45:23;15.15;;;9.10;;
36009;SDS011;22076;52.182;5.404;2023-06-05T07:47:49;14.85;;;8.13;;
36009;SDS011;22076;52.182;5.404;2023-06-05T07:50:16;14.02;;;7.82;;
36009;SDS011;22076;52.182;5.404;2023-06-05T07:52:42;12.18;;;6.80;;
36009;SDS011;22076;52.182;5.404;2023-06-05T07:55:09;13.82;;;7.45;;
36009;SDS011;22076;52.182;5.404;2023-06-05T07:57:37;9.00;;;6.40;;
36009;SDS011;22076;52.182;5.404;2023-06-05T08:00:04;15.80;;;9.48;;
36009;SDS011;22076;52.182;5.404;2023-06-05T08:02:34;13.18;;;7.47;;
36009;SDS011;22076;52.182;5.404;2023-06-05T08:05:00;10.55;;;6.85;;
36009;SDS011;22076;52.182;5.404;2023-06-05T08:07:27;15.27;;;8.35;;
36009;SDS011;22076;52.182;5.404;2023-06-05T08:09:53;12.30;;;7.63;;
36009;SDS011;22076;52.182;5.404;2023-06-05T08:12:20;11.82;;;7.53;;
36009;SDS011;22076;52.182;5.404;2023-06-05T08:14:49;12.50;;;7.43;;
36009;SDS011;22076;52.182;5.404;2023-06-05T08:17:15;9.63;;;6.90;;
36009;SDS011;22076;52.182;5.404;2023-06-05T08:19:42;14.30;;;8.07;;
36009;SDS011;22076;52.182;5.404;2023-06-05T08:22:13;14.15;;;8.75;;
36009;SDS011;22076;52.182;5.404;2023-06-05T08:24:40;12.23;;;8.52;;
36009;SDS011;22076;52.182;5.404;2023-06-05T08:27:07;9.38;;;5.68;;
36009;SDS011;22076;52.182;5.404;2023-06-05T08:29:33;8.55;;;5.97;;
36009;SDS011;22076;52.182;5.404;2023-06-05T08:32:03;11.45;;;6.82;;
36009;SDS011;22076;52.182;5.404;2023-06-05T08:34:30;11.20;;;6.32;;
36009;SDS011;22076;52.182;5.404;2023-06-05T08:36:57;11.20;;;7.10;;
36009;SDS011;22076;52.182;5.404;2023-06-05T08:39:24;13.15;;;7.47;;
36009;SDS011;22076;52.182;5.404;2023-06-05T08:41:52;13.45;;;8.77;;
36009;SDS011;22076;52.182;5.404;2023-06-05T08:44:20;12.40;;;8.10;;
36009;SDS011;22076;52.182;5.404;2023-06-05T08:46:49;13.63;;;8.88;;
36009;SDS011;22076;52.182;5.404;2023-06-05T08:49:17;11.27;;;6.85;;
36009;SDS011;22076;52.182;5.404;2023-06-05T08:51:49;8.90;;;6.35;;
36009;SDS011;22076;52.182;5.404;2023-06-05T08:54:17;12.73;;;8.07;;
36009;SDS011;22076;52.182;5.404;2023-06-05T08:56:45;11.75;;;7.68;;
36009;SDS011;22076;52.182;5.404;2023-06-05T08:59:13;11.15;;;6.90;;
36009;SDS011;22076;52.182;5.404;2023-06-05T09:01:40;8.85;;;5.78;;
36009;SDS011;22076;52.182;5.404;2023-06-05T09:04:08;9.82;;;6.07;;
36009;SDS011;22076;52.182;5.404;2023-06-05T09:06:37;7.22;;;4.97;;
36009;SDS011;22076;52.182;5.404;2023-06-05T09:09:04;11.40;;;7.57;;
36009;SDS011;22076;52.182;5.404;2023-06-05T09:11:31;10.63;;;7.32;;
36009;SDS011;22076;52.182;5.404;2023-06-05T09:13:58;6.47;;;4.85;;
36009;SDS011;22076;52.182;5.404;2023-06-05T09:16:35;10.23;;;7.13;;
36009;SDS011;22076;52.182;5.404;2023-06-05T09:19:03;8.13;;;5.25;;
36009;SDS011;22076;52.182;5.404;2023-06-05T09:21:30;9.27;;;5.30;;
36009;SDS011;22076;52.182;5.404;2023-06-05T09:24:11;6.60;;;4.72;;
36009;SDS011;22076;52.182;5.404;2023-06-05T09:26:49;7.20;;;5.68;;
36009;SDS011;22076;52.182;5.404;2023-06-05T09:29:21;9.40;;;6.32;;
36009;SDS011;22076;52.182;5.404;2023-06-05T09:31:52;8.35;;;5.32;;
36009;SDS011;22076;52.182;5.404;2023-06-05T09:34:20;7.97;;;5.57;;
36009;SDS011;22076;52.182;5.404;2023-06-05T09:36:48;6.70;;;4.32;;
36009;SDS011;22076;52.182;5.404;2023-06-05T09:39:16;8.40;;;4.55;;
36009;SDS011;22076;52.182;5.404;2023-06-05T09:41:45;10.30;;;5.93;;
36009;SDS011;22076;52.182;5.404;2023-06-05T09:44:14;7.40;;;5.30;;
36009;SDS011;22076;52.182;5.404;2023-06-05T09:46:56;6.65;;;4.22;;
36009;SDS011;22076;52.182;5.404;2023-06-05T09:49:24;7.60;;;4.60;;
36009;SDS011;22076;52.182;5.404;2023-06-05T09:51:52;8.85;;;5.78;;
36009;SDS011;22076;52.182;5.404;2023-06-05T09:54:20;9.55;;;4.68;;
36009;SDS011;22076;52.182;5.404;2023-06-05T09:56:48;7.70;;;4.30;;
36009;SDS011;22076;52.182;5.404;2023-06-05T09:59:18;8.68;;;5.20;;
36009;SDS011;22076;52.182;5.404;2023-06-05T10:01:46;12.95;;;5.63;;
36009;SDS011;22076;52.182;5.404;2023-06-05T10:04:16;8.90;;;4.72;;
36009;SDS011;22076;52.182;5.404;2023-06-05T10:06:45;5.38;;;4.05;;
36009;SDS011;22076;52.182;5.404;2023-06-05T10:09:14;5.60;;;4.40;;
36009;SDS011;22076;52.182;5.404;2023-06-05T10:11:42;7.72;;;5.03;;
36009;SDS011;22076;52.182;5.404;2023-06-05T10:14:09;4.97;;;4.22;;
36009;SDS011;22076;52.182;5.404;2023-06-05T10:16:36;7.90;;;4.18;;
36009;SDS011;22076;52.182;5.404;2023-06-05T10:19:03;7.22;;;4.50;;
36009;SDS011;22076;52.182;5.404;2023-06-05T10:21:30;3.72;;;2.90;;
36009;SDS011;22076;52.182;5.404;2023-06-05T10:23:57;5.50;;;3.83;;
36009;SDS011;22076;52.182;5.404;2023-06-05T10:26:29;5.30;;;3.95;;
36009;SDS011;22076;52.182;5.404;2023-06-05T10:29:08;7.53;;;4.53;;
36009;SDS011;22076;52.182;5.404;2023-06-05T10:31:42;4.88;;;3.38;;
36009;SDS011;22076;52.182;5.404;2023-06-05T10:34:21;5.22;;;3.83;;
36009;SDS011;22076;52.182;5.404;2023-06-05T10:37:07;7.60;;;4.07;;
36009;SDS011;22076;52.182;5.404;2023-06-05T10:40:05;5.57;;;3.65;;
36009;SDS011;22076;52.182;5.404;2023-06-05T10:42:34;5.82;;;4.47;;
36009;SDS011;22076;52.182;5.404;2023-06-05T10:45:02;8.88;;;4.30;;
36009;SDS011;22076;52.182;5.404;2023-06-05T10:47:49;6.38;;;3.70;;
36009;SDS011;22076;52.182;5.404;2023-06-05T10:50:20;9.32;;;3.97;;
36009;SDS011;22076;52.182;5.404;2023-06-05T10:52:52;4.70;;;3.80;;
36009;SDS011;22076;52.182;5.404;2023-06-05T10:55:19;6.30;;;4.38;;
36009;SDS011;22076;52.182;5.404;2023-06-05T10:58:03;6.60;;;4.43;;
36009;SDS011;22076;52.182;5.404;2023-06-05T11:01:14;6.25;;;3.85;;
36009;SDS011;22076;52.182;5.404;2023-06-05T11:03:54;5.80;;;3.15;;
36009;SDS011;22076;52.182;5.404;2023-06-05T11:06:22;5.43;;;4.55;;
36009;SDS011;22076;52.182;5.404;2023-06-05T11:14:24;7.22;;;4.22;;
36009;SDS011;22076;52.182;5.404;2023-06-05T11:16:52;7.03;;;4.32;;
36009;SDS011;22076;52.182;5.404;2023-06-05T11:19:37;6.43;;;4.47;;
36009;SDS011;22076;52.182;5.404;2023-06-05T11:22:04;6.28;;;4.40;;
36009;SDS011;22076;52.182;5.404;2023-06-05T11:24:32;8.02;;;4.80;;
36009;SDS011;22076;52.182;5.404;2023-06-05T11:27:03;9.82;;;4.50;;
36009;SDS011;22076;52.182;5.404;2023-06-05T11:29:30;8.25;;;4.50;;
36009;SDS011;22076;52.182;5.404;2023-06-05T11:31:59;6.50;;;3.92;;
36009;SDS011;22076;52.182;5.404;2023-06-05T11:34:26;8.85;;;4.65;;
36009;SDS011;22076;52.182;5.404;2023-06-05T11:36:55;4.88;;;3.53;;
36009;SDS011;22076;52.182;5.404;2023-06-05T11:39:23;8.88;;;4.72;;
36009;SDS011;22076;52.182;5.404;2023-06-05T11:41:54;6.00;;;3.83;;
36009;SDS011;22076;52.182;5.404;2023-06-05T11:44:30;6.32;;;4.07;;
36009;SDS011;22076;52.182;5.404;2023-06-05T11:46:57;8.02;;;4.38;;
36009;SDS011;22076;52.182;5.404;2023-06-05T11:49:26;6.68;;;4.85;;
36009;SDS011;22076;52.182;5.404;2023-06-05T11:51:53;5.25;;;3.65;;
36009;SDS011;22076;52.182;5.404;2023-06-05T11:54:26;6.05;;;3.55;;
36009;SDS011;22076;52.182;5.404;2023-06-05T11:56:57;6.20;;;4.20;;
36009;SDS011;22076;52.182;5.404;2023-06-05T11:59:26;12.45;;;4.65;;
36009;SDS011;22076;52.182;5.404;2023-06-05T12:01:53;7.57;;;4.13;;
36009;SDS011;22076;52.182;5.404;2023-06-05T12:04:20;5.88;;;4.70;;
36009;SDS011;22076;52.182;5.404;2023-06-05T12:06:49;8.00;;;4.30;;
36009;SDS011;22076;52.182;5.404;2023-06-05T12:09:16;8.45;;;4.95;;
36009;SDS011;22076;52.182;5.404;2023-06-05T12:11:43;7.70;;;4.05;;
36009;SDS011;22076;52.182;5.404;2023-06-05T12:14:11;5.13;;;3.85;;
36009;SDS011;22076;52.182;5.404;2023-06-05T12:16:42;8.52;;;5.03;;
36009;SDS011;22076;52.182;5.404;2023-06-05T12:19:12;8.82;;;4.63;;
36009;SDS011;22076;52.182;5.404;2023-06-05T12:21:39;7.97;;;3.90;;
36009;SDS011;22076;52.182;5.404;2023-06-05T12:24:07;8.10;;;4.90;;
36009;SDS011;22076;52.182;5.404;2023-06-05T12:26:50;6.45;;;4.47;;
36009;SDS011;22076;52.182;5.404;2023-06-05T12:29:18;6.68;;;4.75;;
36009;SDS011;22076;52.182;5.404;2023-06-05T12:31:46;5.88;;;4.97;;
36009;SDS011;22076;52.182;5.404;2023-06-05T12:34:13;7.93;;;4.85;;
36009;SDS011;22076;52.182;5.404;2023-06-05T12:36:41;8.32;;;4.90;;
36009;SDS011;22076;52.182;5.404;2023-06-05T12:39:10;8.13;;;5.40;;
36009;SDS011;22076;52.182;5.404;2023-06-05T12:41:37;5.72;;;3.58;;
36009;SDS011;22076;52.182;5.404;2023-06-05T12:44:04;8.85;;;5.38;;
36009;SDS011;22076;52.182;5.404;2023-06-05T12:46:32;8.75;;;4.72;;
36009;SDS011;22076;52.182;5.404;2023-06-05T12:48:58;7.50;;;5.35;;
36009;SDS011;22076;52.182;5.404;2023-06-05T12:51:25;7.40;;;5.00;;
36009;SDS011;22076;52.182;5.404;2023-06-05T12:53:52;7.97;;;5.00;;
36009;SDS011;22076;52.182;5.404;2023-06-05T12:56:20;6.78;;;4.25;;
36009;SDS011;22076;52.182;5.404;2023-06-05T12:58:49;8.32;;;4.30;;
36009;SDS011;22076;52.182;5.404;2023-06-05T13:01:17;8.50;;;5.45;;
36009;SDS011;22076;52.182;5.404;2023-06-05T13:03:43;8.00;;;5.90;;
36009;SDS011;22076;52.182;5.404;2023-06-05T13:06:10;7.50;;;4.72;;
36009;SDS011;22076;52.182;5.404;2023-06-05T13:08:37;6.00;;;4.70;;
36009;SDS011;22076;52.182;5.404;2023-06-05T13:11:03;6.38;;;4.47;;
36009;SDS011;22076;52.182;5.404;2023-06-05T13:13:31;6.50;;;4.50;;
36009;SDS011;22076;52.182;5.404;2023-06-05T13:16:00;10.57;;;5.20;;
36009;SDS011;22076;52.182;5.404;2023-06-05T13:18:27;6.28;;;4.22;;
36009;SDS011;22076;52.182;5.404;2023-06-05T13:20:54;8.77;;;4.75;;
36009;SDS011;22076;52.182;5.404;2023-06-05T13:23:20;9.55;;;5.25;;
36009;SDS011;22076;52.182;5.404;2023-06-05T13:25:47;9.45;;;5.22;;
36009;SDS011;22076;52.182;5.404;2023-06-05T13:28:13;7.30;;;5.90;;
36009;SDS011;22076;52.182;5.404;2023-06-05T13:30:41;11.02;;;5.05;;
36009;SDS011;22076;52.182;5.404;2023-06-05T13:33:08;9.98;;;5.72;;
36009;SDS011;22076;52.182;5.404;2023-06-05T13:35:34;7.30;;;4.75;;
36009;SDS011;22076;52.182;5.404;2023-06-05T13:38:01;6.22;;;4.97;;
36009;SDS011;22076;52.182;5.404;2023-06-05T13:40:28;8.80;;;4.88;;
36009;SDS011;22076;52.182;5.404;2023-06-05T13:42:57;7.22;;;4.78;;
36009;SDS011;22076;52.182;5.404;2023-06-05T13:45:24;8.23;;;4.55;;
36009;SDS011;22076;52.182;5.404;2023-06-05T13:47:53;6.03;;;4.82;;
36009;SDS011;22076;52.182;5.404;2023-06-05T13:50:19;8.77;;;4.97;;
36009;SDS011;22076;52.182;5.404;2023-06-05T13:52:46;6.20;;;4.32;;
36009;SDS011;22076;52.182;5.404;2023-06-05T13:55:12;7.50;;;4.60;;
36009;SDS011;22076;52.182;5.404;2023-06-05T13:57:39;6.95;;;4.85;;
36009;SDS011;22076;52.182;5.404;2023-06-05T14:00:06;5.03;;;4.35;;
36009;SDS011;22076;52.182;5.404;2023-06-05T14:02:34;6.47;;;4.88;;
36009;SDS011;22076;52.182;5.404;2023-06-05T14:05:02;5.97;;;4.53;;
36009;SDS011;22076;52.182;5.404;2023-06-05T14:07:29;6.57;;;4.30;;
36009;SDS011;22076;52.182;5.404;2023-06-05T14:09:55;8.88;;;4.57;;
36009;SDS011;22076;52.182;5.404;2023-06-05T14:12:24;6.90;;;4.25;;
36009;SDS011;22076;52.182;5.404;2023-06-05T14:14:52;5.90;;;4.10;;
36009;SDS011;22076;52.182;5.404;2023-06-05T14:17:18;7.65;;;4.88;;
36009;SDS011;22076;52.182;5.404;2023-06-05T14:19:46;6.35;;;3.97;;
36009;SDS011;22076;52.182;5.404;2023-06-05T14:22:14;7.88;;;5.38;;
36009;SDS011;22076;52.182;5.404;2023-06-05T14:24:41;9.43;;;5.43;;
36009;SDS011;22076;52.182;5.404;2023-06-05T14:27:08;7.97;;;5.43;;
36009;SDS011;22076;52.182;5.404;2023-06-05T14:29:37;8.10;;;4.50;;
36009;SDS011;22076;52.182;5.404;2023-06-05T14:32:06;7.55;;;4.30;;
36009;SDS011;22076;52.182;5.404;2023-06-05T14:34:36;6.82;;;4.90;;
36009;SDS011;22076;52.182;5.404;2023-06-05T14:37:04;7.25;;;4.65;;
36009;SDS011;22076;52.182;5.404;2023-06-05T14:39:32;7.65;;;5.22;;
36009;SDS011;22076;52.182;5.404;2023-06-05T14:41:59;9.98;;;5.18;;
36009;SDS011;22076;52.182;5.404;2023-06-05T14:44:26;7.25;;;4.80;;
36009;SDS011;22076;52.182;5.404;2023-06-05T14:46:53;9.40;;;4.88;;
36009;SDS011;22076;52.182;5.404;2023-06-05T14:49:21;10.02;;;4.65;;
36009;SDS011;22076;52.182;5.404;2023-06-05T14:51:48;6.88;;;4.78;;
36009;SDS011;22076;52.182;5.404;2023-06-05T14:54:15;7.53;;;3.83;;
36009;SDS011;22076;52.182;5.404;2023-06-05T14:56:44;6.93;;;4.50;;